sensor_id;sensor_type;location;lat;lon;timestamp;temperature;humidity
22008;DHT22;11168;56.976;24.168;2024-03-02T00:01:25;3.90;99.90
22008;DHT22;11168;56.976;24.168;2024-03-02T00:03:52;3.90;99.90
22008;DHT22;11168;56.976;24.168;2024-03-02T00:06:20;3.90;99.90
22008;DHT22;11168;56.976;24.168;2024-03-02T00:08:48;3.90;99.90
22008;DHT22;11168;56.976;24.168;2024-03-02T00:11:15;3.80;99.90
22008;DHT22;11168;56.976;24.168;2024-03-02T00:13:43;3.80;99.90
22008;DHT22;11168;56.976;24.168;2024-03-02T00:16:10;3.80;99.90
22008;DHT22;11168;56.976;24.168;2024-03-02T00:18:37;3.80;99.90
22008;DHT22;11168;56.976;24.168;2024-03-02T00:21:05;3.70;99.90
22008;DHT22;11168;56.976;24.168;2024-03-02T00:23:33;3.70;99.90
22008;DHT22;11168;56.976;24.168;2024-03-02T00:26:00;3.70;99.90
22008;DHT22;11168;56.976;24.168;2024-03-02T00:28:29;3.60;99.90
22008;DHT22;11168;56.976;24.168;2024-03-02T00:33:27;3.70;99.90
22008;DHT22;11168;56.976;24.168;2024-03-02T00:35:55;3.60;99.90
22008;DHT22;11168;56.976;24.168;2024-03-02T00:38:23;3.60;99.90
22008;DHT22;11168;56.976;24.168;2024-03-02T00:40:50;3.60;99.90
22008;DHT22;11168;56.976;24.168;2024-03-02T00:45:51;3.60;99.90
22008;DHT22;11168;56.976;24.168;2024-03-02T00:48:18;3.60;99.90
22008;DHT22;11168;56.976;24.168;2024-03-02T00:50:46;3.60;99.90
22008;DHT22;11168;56.976;24.168;2024-03-02T00:53:13;3.60;99.90
22008;DHT22;11168;56.976;24.168;2024-03-02T00:55:40;3.60;99.90
22008;DHT22;11168;56.976;24.168;2024-03-02T00:58:11;3.60;99.90
22008;DHT22;11168;56.976;24.168;2024-03-02T01:00:38;3.60;99.90
22008;DHT22;11168;56.976;24.168;2024-03-02T01:03:05;3.50;99.90
22008;DHT22;11168;56.976;24.168;2024-03-02T01:05:32;3.50;99.90
22008;DHT22;11168;56.976;24.168;2024-03-02T01:07:59;3.50;99.90
22008;DHT22;11168;56.976;24.168;2024-03-02T01:10:26;3.50;99.90
22008;DHT22;11168;56.976;24.168;2024-03-02T01:12:53;3.50;99.90
22008;DHT22;11168;56.976;24.168;2024-03-02T01:15:20;3.50;99.90
22008;DHT22;11168;56.976;24.168;2024-03-02T01:17:48;3.50;99.90
22008;DHT22;11168;56.976;24.168;2024-03-02T01:20:19;3.50;99.90
22008;DHT22;11168;56.976;24.168;2024-03-02T01:22:46;3.50;99.90
22008;DHT22;11168;56.976;24.168;2024-03-02T01:25:14;3.50;99.90
22008;DHT22;11168;56.976;24.168;2024-03-02T01:27:40;3.50;99.90
22008;DHT22;11168;56.976;24.168;2024-03-02T01:30:08;3.50;99.90
22008;DHT22;11168;56.976;24.168;2024-03-02T01:32:35;3.50;99.90
22008;DHT22;11168;56.976;24.168;2024-03-02T01:35:02;3.50;99.90
22008;DHT22;11168;56.976;24.168;2024-03-02T01:37:29;3.40;99.90
22008;DHT22;11168;56.976;24.168;2024-03-02T01:39:55;3.50;99.90
22008;DHT22;11168;56.976;24.168;2024-03-02T01:42:22;3.40;99.90
22008;DHT22;11168;56.976;24.168;2024-03-02T01:44:50;3.40;99.90
22008;DHT22;11168;56.976;24.168;2024-03-02T01:47:17;3.40;99.90
22008;DHT22;11168;56.976;24.168;2024-03-02T01:49:44;3.40;99.90
22008;DHT22;11168;56.976;24.168;2024-03-02T01:52:11;3.30;99.90
22008;DHT22;11168;56.976;24.168;2024-03-02T01:54:38;3.30;99.90
22008;DHT22;11168;56.976;24.168;2024-03-02T01:57:05;3.30;99.90
22008;DHT22;11168;56.976;24.168;2024-03-02T01:59:33;3.30;99.90
22008;DHT22;11168;56.976;24.168;2024-03-02T02:02:02;3.30;99.90
22008;DHT22;11168;56.976;24.168;2024-03-02T02:04:29;3.20;99.90
22008;DHT22;11168;56.976;24.168;2024-03-02T02:06:56;3.20;99.90
22008;DHT22;11168;56.976;24.168;2024-03-02T02:09:23;3.20;99.90
22008;DHT22;11168;56.976;24.168;2024-03-02T02:11:51;3.20;99.90
22008;DHT22;11168;56.976;24.168;2024-03-02T02:14:18;3.20;99.90
22008;DHT22;11168;56.976;24.168;2024-03-02T02:16:45;3.10;99.90
22008;DHT22;11168;56.976;24.168;2024-03-02T02:19:12;3.10;99.90
22008;DHT22;11168;56.976;24.168;2024-03-02T02:21:42;3.10;99.90
22008;DHT22;11168;56.976;24.168;2024-03-02T02:24:09;3.10;99.90
22008;DHT22;11168;56.976;24.168;2024-03-02T02:26:35;3.10;99.90
22008;DHT22;11168;56.976;24.168;2024-03-02T02:29:03;3.10;99.90
22008;DHT22;11168;56.976;24.168;2024-03-02T02:31:39;3.10;99.90
22008;DHT22;11168;56.976;24.168;2024-03-02T02:34:06;3.10;99.90
22008;DHT22;11168;56.976;24.168;2024-03-02T02:36:33;3.00;99.90
22008;DHT22;11168;56.976;24.168;2024-03-02T02:39:02;3.00;99.90
22008;DHT22;11168;56.976;24.168;2024-03-02T02:41:30;3.00;99.90
22008;DHT22;11168;56.976;24.168;2024-03-02T02:43:57;3.00;99.90
22008;DHT22;11168;56.976;24.168;2024-03-02T02:46:24;3.00;99.90
22008;DHT22;11168;56.976;24.168;2024-03-02T02:48:50;3.00;99.90
22008;DHT22;11168;56.976;24.168;2024-03-02T02:51:19;2.90;99.90
22008;DHT22;11168;56.976;24.168;2024-03-02T02:53:46;2.90;99.90
22008;DHT22;11168;56.976;24.168;2024-03-02T02:56:13;2.90;99.90
22008;DHT22;11168;56.976;24.168;2024-03-02T02:58:40;2.90;99.90
22008;DHT22;11168;56.976;24.168;2024-03-02T03:01:08;2.90;99.90
22008;DHT22;11168;56.976;24.168;2024-03-02T03:03:35;2.90;99.90
22008;DHT22;11168;56.976;24.168;2024-03-02T03:06:02;2.80;99.90
22008;DHT22;11168;56.976;24.168;2024-03-02T03:08:29;2.80;99.90
22008;DHT22;11168;56.976;24.168;2024-03-02T03:10:56;2.90;99.90
22008;DHT22;11168;56.976;24.168;2024-03-02T03:13:23;2.80;99.90
22008;DHT22;11168;56.976;24.168;2024-03-02T03:15:50;2.90;99.90
22008;DHT22;11168;56.976;24.168;2024-03-02T03:18:17;2.80;99.90
22008;DHT22;11168;56.976;24.168;2024-03-02T03:20:44;2.80;99.90
22008;DHT22;11168;56.976;24.168;2024-03-02T03:23:11;2.80;99.90
22008;DHT22;11168;56.976;24.168;2024-03-02T03:25:42;2.80;99.90
22008;DHT22;11168;56.976;24.168;2024-03-02T03:28:09;2.80;99.90
22008;DHT22;11168;56.976;24.168;2024-03-02T03:30:37;2.80;99.90
22008;DHT22;11168;56.976;24.168;2024-03-02T03:33:05;2.80;99.90
22008;DHT22;11168;56.976;24.168;2024-03-02T03:35:35;2.80;99.90
22008;DHT22;11168;56.976;24.168;2024-03-02T03:38:03;2.80;99.90
22008;DHT22;11168;56.976;24.168;2024-03-02T03:40:32;2.90;99.90
22008;DHT22;11168;56.976;24.168;2024-03-02T03:42:59;2.90;99.90
22008;DHT22;11168;56.976;24.168;2024-03-02T03:45:26;2.90;99.90
22008;DHT22;11168;56.976;24.168;2024-03-02T03:47:54;2.90;99.90
22008;DHT22;11168;56.976;24.168;2024-03-02T03:50:21;2.90;99.90
22008;DHT22;11168;56.976;24.168;2024-03-02T03:52:48;2.90;99.90
22008;DHT22;11168;56.976;24.168;2024-03-02T03:55:16;2.90;99.90
22008;DHT22;11168;56.976;24.168;2024-03-02T03:57:43;2.90;99.90
22008;DHT22;11168;56.976;24.168;2024-03-02T04:00:10;2.90;99.90
22008;DHT22;11168;56.976;24.168;2024-03-02T04:02:37;2.90;99.90
22008;DHT22;11168;56.976;24.168;2024-03-02T04:05:04;2.90;99.90
22008;DHT22;11168;56.976;24.168;2024-03-02T04:07:36;2.90;99.90
22008;DHT22;11168;56.976;24.168;2024-03-02T04:10:08;2.90;99.90
22008;DHT22;11168;56.976;24.168;2024-03-02T04:12:36;2.90;99.90
22008;DHT22;11168;56.976;24.168;2024-03-02T04:15:07;2.90;99.90
22008;DHT22;11168;56.976;24.168;2024-03-02T04:17:34;2.90;99.90
22008;DHT22;11168;56.976;24.168;2024-03-02T04:20:02;2.90;99.90
22008;DHT22;11168;56.976;24.168;2024-03-02T04:22:32;2.80;99.90
22008;DHT22;11168;56.976;24.168;2024-03-02T04:25:02;2.90;99.90
22008;DHT22;11168;56.976;24.168;2024-03-02T04:27:31;2.80;99.90
22008;DHT22;11168;56.976;24.168;2024-03-02T04:30:01;2.80;99.90
22008;DHT22;11168;56.976;24.168;2024-03-02T04:32:28;2.80;99.90
22008;DHT22;11168;56.976;24.168;2024-03-02T04:34:54;2.80;99.90
22008;DHT22;11168;56.976;24.168;2024-03-02T04:37:21;2.80;99.90
22008;DHT22;11168;56.976;24.168;2024-03-02T04:39:48;2.80;99.90
22008;DHT22;11168;56.976;24.168;2024-03-02T04:42:15;2.80;99.90
22008;DHT22;11168;56.976;24.168;2024-03-02T04:44:42;2.80;99.90
22008;DHT22;11168;56.976;24.168;2024-03-02T04:47:10;2.80;99.90
22008;DHT22;11168;56.976;24.168;2024-03-02T04:49:37;2.80;99.90
22008;DHT22;11168;56.976;24.168;2024-03-02T04:52:04;2.80;99.90
22008;DHT22;11168;56.976;24.168;2024-03-02T04:54:31;2.80;99.90
22008;DHT22;11168;56.976;24.168;2024-03-02T04:56:58;2.80;99.90
22008;DHT22;11168;56.976;24.168;2024-03-02T04:59:25;2.80;99.90
22008;DHT22;11168;56.976;24.168;2024-03-02T05:01:52;2.80;99.90
22008;DHT22;11168;56.976;24.168;2024-03-02T05:04:19;2.80;99.90
22008;DHT22;11168;56.976;24.168;2024-03-02T05:06:45;2.80;99.90
22008;DHT22;11168;56.976;24.168;2024-03-02T05:09:19;2.80;99.90
22008;DHT22;11168;56.976;24.168;2024-03-02T05:11:46;2.80;99.90
22008;DHT22;11168;56.976;24.168;2024-03-02T05:14:32;2.80;99.90
22008;DHT22;11168;56.976;24.168;2024-03-02T05:16:59;2.70;99.90
22008;DHT22;11168;56.976;24.168;2024-03-02T05:19:26;2.80;99.90
22008;DHT22;11168;56.976;24.168;2024-03-02T05:21:53;2.80;99.90
22008;DHT22;11168;56.976;24.168;2024-03-02T05:24:20;2.80;99.90
22008;DHT22;11168;56.976;24.168;2024-03-02T05:26:47;2.80;99.90
22008;DHT22;11168;56.976;24.168;2024-03-02T05:29:14;2.80;99.90
22008;DHT22;11168;56.976;24.168;2024-03-02T05:31:42;2.80;99.90
22008;DHT22;11168;56.976;24.168;2024-03-02T05:34:11;2.80;99.90
22008;DHT22;11168;56.976;24.168;2024-03-02T05:36:38;2.80;99.90
22008;DHT22;11168;56.976;24.168;2024-03-02T05:39:05;2.80;99.90
22008;DHT22;11168;56.976;24.168;2024-03-02T05:41:35;2.90;99.90
22008;DHT22;11168;56.976;24.168;2024-03-02T05:44:05;2.90;99.90
22008;DHT22;11168;56.976;24.168;2024-03-02T05:46:32;2.90;99.90
22008;DHT22;11168;56.976;24.168;2024-03-02T05:48:59;2.90;99.90
22008;DHT22;11168;56.976;24.168;2024-03-02T05:51:27;2.90;99.90
22008;DHT22;11168;56.976;24.168;2024-03-02T05:53:55;2.90;99.90
22008;DHT22;11168;56.976;24.168;2024-03-02T05:56:22;2.90;99.90
22008;DHT22;11168;56.976;24.168;2024-03-02T05:58:49;3.00;99.90
22008;DHT22;11168;56.976;24.168;2024-03-02T06:01:36;3.00;99.90
22008;DHT22;11168;56.976;24.168;2024-03-02T06:04:04;3.10;99.90
22008;DHT22;11168;56.976;24.168;2024-03-02T06:06:33;3.10;99.90
22008;DHT22;11168;56.976;24.168;2024-03-02T06:09:01;3.10;99.90
22008;DHT22;11168;56.976;24.168;2024-03-02T06:11:29;3.10;99.90
22008;DHT22;11168;56.976;24.168;2024-03-02T06:13:56;3.10;99.90
22008;DHT22;11168;56.976;24.168;2024-03-02T06:16:23;3.20;99.90
22008;DHT22;11168;56.976;24.168;2024-03-02T06:18:50;3.30;99.90
22008;DHT22;11168;56.976;24.168;2024-03-02T06:21:18;3.30;99.90
22008;DHT22;11168;56.976;24.168;2024-03-02T06:23:45;3.30;99.90
22008;DHT22;11168;56.976;24.168;2024-03-02T06:26:12;3.40;99.90
22008;DHT22;11168;56.976;24.168;2024-03-02T06:28:39;3.40;99.90
22008;DHT22;11168;56.976;24.168;2024-03-02T06:31:06;3.50;99.90
22008;DHT22;11168;56.976;24.168;2024-03-02T06:33:33;3.60;99.90
22008;DHT22;11168;56.976;24.168;2024-03-02T06:36:03;3.60;99.90
22008;DHT22;11168;56.976;24.168;2024-03-02T06:38:30;3.70;99.90
22008;DHT22;11168;56.976;24.168;2024-03-02T06:40:58;3.80;99.90
22008;DHT22;11168;56.976;24.168;2024-03-02T06:43:25;3.80;99.90
22008;DHT22;11168;56.976;24.168;2024-03-02T06:45:54;3.80;99.90
22008;DHT22;11168;56.976;24.168;2024-03-02T06:48:22;3.90;99.90
22008;DHT22;11168;56.976;24.168;2024-03-02T06:50:50;3.90;99.90
22008;DHT22;11168;56.976;24.168;2024-03-02T06:53:18;4.00;99.90
22008;DHT22;11168;56.976;24.168;2024-03-02T06:55:46;4.10;99.90
22008;DHT22;11168;56.976;24.168;2024-03-02T06:58:13;4.20;99.90
22008;DHT22;11168;56.976;24.168;2024-03-02T07:00:42;4.30;99.90
22008;DHT22;11168;56.976;24.168;2024-03-02T07:03:10;4.30;99.90
22008;DHT22;11168;56.976;24.168;2024-03-02T07:05:37;4.40;99.90
22008;DHT22;11168;56.976;24.168;2024-03-02T07:08:04;4.50;99.90
22008;DHT22;11168;56.976;24.168;2024-03-02T07:10:32;4.60;99.90
22008;DHT22;11168;56.976;24.168;2024-03-02T07:12:59;4.80;99.90
22008;DHT22;11168;56.976;24.168;2024-03-02T07:15:26;4.80;99.90
22008;DHT22;11168;56.976;24.168;2024-03-02T07:17:54;4.90;99.90
22008;DHT22;11168;56.976;24.168;2024-03-02T07:20:22;4.90;99.90
22008;DHT22;11168;56.976;24.168;2024-03-02T07:22:49;5.10;99.90
22008;DHT22;11168;56.976;24.168;2024-03-02T07:25:20;5.00;99.90
22008;DHT22;11168;56.976;24.168;2024-03-02T07:27:50;5.00;99.90
22008;DHT22;11168;56.976;24.168;2024-03-02T07:30:17;5.10;99.90
22008;DHT22;11168;56.976;24.168;2024-03-02T07:32:44;5.20;99.90
22008;DHT22;11168;56.976;24.168;2024-03-02T07:35:12;5.40;99.90
22008;DHT22;11168;56.976;24.168;2024-03-02T07:37:41;5.50;99.90
22008;DHT22;11168;56.976;24.168;2024-03-02T07:40:08;5.60;99.90
22008;DHT22;11168;56.976;24.168;2024-03-02T07:42:39;5.80;99.90
22008;DHT22;11168;56.976;24.168;2024-03-02T07:45:08;5.80;99.90
22008;DHT22;11168;56.976;24.168;2024-03-02T07:47:35;6.00;99.90
22008;DHT22;11168;56.976;24.168;2024-03-02T07:50:03;6.10;99.90
22008;DHT22;11168;56.976;24.168;2024-03-02T07:52:33;6.30;99.90
22008;DHT22;11168;56.976;24.168;2024-03-02T07:55:01;6.60;99.90
22008;DHT22;11168;56.976;24.168;2024-03-02T07:57:28;6.90;99.90
22008;DHT22;11168;56.976;24.168;2024-03-02T07:59:55;7.30;99.90
22008;DHT22;11168;56.976;24.168;2024-03-02T08:02:22;8.00;99.90
22008;DHT22;11168;56.976;24.168;2024-03-02T08:04:49;8.60;99.90
22008;DHT22;11168;56.976;24.168;2024-03-02T08:07:18;9.50;99.90
22008;DHT22;11168;56.976;24.168;2024-03-02T08:09:45;10.20;99.90
22008;DHT22;11168;56.976;24.168;2024-03-02T08:12:12;10.40;99.90
22008;DHT22;11168;56.976;24.168;2024-03-02T08:14:40;9.80;99.90
22008;DHT22;11168;56.976;24.168;2024-03-02T08:17:08;8.80;99.90
22008;DHT22;11168;56.976;24.168;2024-03-02T08:19:36;9.30;99.90
22008;DHT22;11168;56.976;24.168;2024-03-02T08:22:04;9.80;99.90
22008;DHT22;11168;56.976;24.168;2024-03-02T08:24:31;9.30;99.90
22008;DHT22;11168;56.976;24.168;2024-03-02T08:26:59;9.90;99.90
22008;DHT22;11168;56.976;24.168;2024-03-02T08:29:27;10.20;99.90
22008;DHT22;11168;56.976;24.168;2024-03-02T08:31:54;10.40;99.90
22008;DHT22;11168;56.976;24.168;2024-03-02T08:34:22;10.30;99.90
22008;DHT22;11168;56.976;24.168;2024-03-02T08:36:49;10.40;99.90
22008;DHT22;11168;56.976;24.168;2024-03-02T08:39:17;9.60;99.90
22008;DHT22;11168;56.976;24.168;2024-03-02T08:41:51;9.70;99.90
22008;DHT22;11168;56.976;24.168;2024-03-02T08:44:18;9.00;99.90
22008;DHT22;11168;56.976;24.168;2024-03-02T08:46:45;9.20;99.90
22008;DHT22;11168;56.976;24.168;2024-03-02T08:49:13;9.30;99.90
22008;DHT22;11168;56.976;24.168;2024-03-02T08:51:40;9.50;99.90
22008;DHT22;11168;56.976;24.168;2024-03-02T08:54:07;10.40;99.90
22008;DHT22;11168;56.976;24.168;2024-03-02T08:56:34;11.00;99.90
22008;DHT22;11168;56.976;24.168;2024-03-02T08:59:02;11.50;99.90
22008;DHT22;11168;56.976;24.168;2024-03-02T09:01:29;11.50;99.90
22008;DHT22;11168;56.976;24.168;2024-03-02T09:03:56;11.10;99.90
22008;DHT22;11168;56.976;24.168;2024-03-02T09:06:23;11.20;99.90
22008;DHT22;11168;56.976;24.168;2024-03-02T09:08:50;12.00;99.90
22008;DHT22;11168;56.976;24.168;2024-03-02T09:11:18;12.30;99.90
22008;DHT22;11168;56.976;24.168;2024-03-02T09:13:45;12.90;99.90
22008;DHT22;11168;56.976;24.168;2024-03-02T09:16:12;13.70;99.90
22008;DHT22;11168;56.976;24.168;2024-03-02T09:18:39;12.90;99.90
22008;DHT22;11168;56.976;24.168;2024-03-02T09:21:06;13.10;99.90
22008;DHT22;11168;56.976;24.168;2024-03-02T09:23:34;13.10;99.90
22008;DHT22;11168;56.976;24.168;2024-03-02T09:26:01;12.60;99.90
22008;DHT22;11168;56.976;24.168;2024-03-02T09:28:29;12.60;99.90
22008;DHT22;11168;56.976;24.168;2024-03-02T09:30:56;12.90;99.90
22008;DHT22;11168;56.976;24.168;2024-03-02T09:33:26;13.10;99.90
22008;DHT22;11168;56.976;24.168;2024-03-02T09:35:53;12.80;99.90
22008;DHT22;11168;56.976;24.168;2024-03-02T09:38:21;12.60;99.90
22008;DHT22;11168;56.976;24.168;2024-03-02T09:40:48;12.20;99.90
22008;DHT22;11168;56.976;24.168;2024-03-02T09:43:15;12.50;99.90
22008;DHT22;11168;56.976;24.168;2024-03-02T09:45:42;12.40;99.90
22008;DHT22;11168;56.976;24.168;2024-03-02T09:48:10;12.90;99.90
22008;DHT22;11168;56.976;24.168;2024-03-02T09:50:37;13.10;99.90
22008;DHT22;11168;56.976;24.168;2024-03-02T09:53:04;13.90;99.90
22008;DHT22;11168;56.976;24.168;2024-03-02T09:55:31;14.10;99.90
22008;DHT22;11168;56.976;24.168;2024-03-02T09:58:01;13.90;99.90
22008;DHT22;11168;56.976;24.168;2024-03-02T10:00:28;13.80;99.90
22008;DHT22;11168;56.976;24.168;2024-03-02T10:02:55;12.20;99.90
22008;DHT22;11168;56.976;24.168;2024-03-02T10:05:25;12.70;99.90
22008;DHT22;11168;56.976;24.168;2024-03-02T10:08:01;12.70;99.90
22008;DHT22;11168;56.976;24.168;2024-03-02T10:10:38;13.50;99.90
22008;DHT22;11168;56.976;24.168;2024-03-02T10:13:10;14.40;99.90
22008;DHT22;11168;56.976;24.168;2024-03-02T10:15:38;13.40;99.90
22008;DHT22;11168;56.976;24.168;2024-03-02T10:18:10;13.90;99.90
22008;DHT22;11168;56.976;24.168;2024-03-02T10:20:42;13.90;99.90
22008;DHT22;11168;56.976;24.168;2024-03-02T10:23:12;13.50;99.90
22008;DHT22;11168;56.976;24.168;2024-03-02T10:25:39;13.10;99.90
22008;DHT22;11168;56.976;24.168;2024-03-02T10:28:20;14.20;99.90
22008;DHT22;11168;56.976;24.168;2024-03-02T10:30:47;14.50;99.90
22008;DHT22;11168;56.976;24.168;2024-03-02T10:33:17;14.30;99.90
22008;DHT22;11168;56.976;24.168;2024-03-02T10:35:44;14.70;99.90
22008;DHT22;11168;56.976;24.168;2024-03-02T10:38:11;15.10;99.90
22008;DHT22;11168;56.976;24.168;2024-03-02T10:40:38;15.10;99.90
22008;DHT22;11168;56.976;24.168;2024-03-02T10:43:05;15.80;99.90
22008;DHT22;11168;56.976;24.168;2024-03-02T10:45:34;15.10;99.90
22008;DHT22;11168;56.976;24.168;2024-03-02T10:48:02;14.50;99.90
22008;DHT22;11168;56.976;24.168;2024-03-02T10:50:30;14.80;99.90
22008;DHT22;11168;56.976;24.168;2024-03-02T10:52:59;14.40;99.90
22008;DHT22;11168;56.976;24.168;2024-03-02T10:55:26;14.10;99.90
22008;DHT22;11168;56.976;24.168;2024-03-02T10:57:54;14.30;99.90
22008;DHT22;11168;56.976;24.168;2024-03-02T11:00:25;13.60;99.90
22008;DHT22;11168;56.976;24.168;2024-03-02T11:03:06;13.40;99.90
22008;DHT22;11168;56.976;24.168;2024-03-02T11:05:38;13.80;99.90
22008;DHT22;11168;56.976;24.168;2024-03-02T11:08:13;14.50;99.90
22008;DHT22;11168;56.976;24.168;2024-03-02T11:10:41;14.50;99.90
22008;DHT22;11168;56.976;24.168;2024-03-02T11:13:14;13.20;99.90
22008;DHT22;11168;56.976;24.168;2024-03-02T11:15:43;12.90;99.90
22008;DHT22;11168;56.976;24.168;2024-03-02T11:18:12;13.30;99.90
22008;DHT22;11168;56.976;24.168;2024-03-02T11:20:40;13.80;99.90
22008;DHT22;11168;56.976;24.168;2024-03-02T11:23:09;13.90;99.90
22008;DHT22;11168;56.976;24.168;2024-03-02T11:25:36;13.30;99.90
22008;DHT22;11168;56.976;24.168;2024-03-02T11:28:07;12.60;99.90
22008;DHT22;11168;56.976;24.168;2024-03-02T11:33:08;11.50;99.90
22008;DHT22;11168;56.976;24.168;2024-03-02T11:35:43;12.00;99.90
22008;DHT22;11168;56.976;24.168;2024-03-02T11:41:02;13.90;99.90
22008;DHT22;11168;56.976;24.168;2024-03-02T11:43:30;13.70;99.90
22008;DHT22;11168;56.976;24.168;2024-03-02T11:45:58;14.00;99.90
22008;DHT22;11168;56.976;24.168;2024-03-02T11:48:26;14.10;99.90
22008;DHT22;11168;56.976;24.168;2024-03-02T11:50:58;14.30;99.90
22008;DHT22;11168;56.976;24.168;2024-03-02T11:53:27;13.90;99.90
22008;DHT22;11168;56.976;24.168;2024-03-02T11:56:02;14.10;99.90
22008;DHT22;11168;56.976;24.168;2024-03-02T11:58:30;14.50;99.90
22008;DHT22;11168;56.976;24.168;2024-03-02T12:00:57;14.00;99.90
22008;DHT22;11168;56.976;24.168;2024-03-02T12:03:26;14.00;99.90
22008;DHT22;11168;56.976;24.168;2024-03-02T12:05:54;14.40;99.90
22008;DHT22;11168;56.976;24.168;2024-03-02T12:08:21;14.10;99.90
22008;DHT22;11168;56.976;24.168;2024-03-02T12:10:59;13.70;99.90
22008;DHT22;11168;56.976;24.168;2024-03-02T12:13:28;13.40;99.90
22008;DHT22;11168;56.976;24.168;2024-03-02T12:15:56;12.90;99.90
22008;DHT22;11168;56.976;24.168;2024-03-02T12:18:24;12.60;99.90
22008;DHT22;11168;56.976;24.168;2024-03-02T12:20:52;13.10;99.90
22008;DHT22;11168;56.976;24.168;2024-03-02T12:23:23;12.10;99.90
22008;DHT22;11168;56.976;24.168;2024-03-02T12:25:50;12.10;99.90
22008;DHT22;11168;56.976;24.168;2024-03-02T12:28:17;11.50;99.90
22008;DHT22;11168;56.976;24.168;2024-03-02T12:30:46;11.70;99.90
22008;DHT22;11168;56.976;24.168;2024-03-02T12:33:15;11.20;99.90
22008;DHT22;11168;56.976;24.168;2024-03-02T12:35:42;10.70;99.90
22008;DHT22;11168;56.976;24.168;2024-03-02T12:38:09;10.40;99.90
22008;DHT22;11168;56.976;24.168;2024-03-02T12:40:38;10.30;99.90
22008;DHT22;11168;56.976;24.168;2024-03-02T12:43:05;9.90;99.90
22008;DHT22;11168;56.976;24.168;2024-03-02T12:45:34;9.90;99.90
22008;DHT22;11168;56.976;24.168;2024-03-02T12:48:04;10.10;99.90
22008;DHT22;11168;56.976;24.168;2024-03-02T12:50:33;9.80;99.90
22008;DHT22;11168;56.976;24.168;2024-03-02T12:53:00;9.90;99.90
22008;DHT22;11168;56.976;24.168;2024-03-02T12:55:27;10.10;99.90
22008;DHT22;11168;56.976;24.168;2024-03-02T12:57:56;10.00;99.90
22008;DHT22;11168;56.976;24.168;2024-03-02T13:00:24;9.90;99.90
22008;DHT22;11168;56.976;24.168;2024-03-02T13:02:51;10.20;99.90
22008;DHT22;11168;56.976;24.168;2024-03-02T13:05:19;10.40;99.90
22008;DHT22;11168;56.976;24.168;2024-03-02T13:07:47;10.50;99.90
22008;DHT22;11168;56.976;24.168;2024-03-02T13:10:15;10.40;99.90
22008;DHT22;11168;56.976;24.168;2024-03-02T13:12:42;10.40;99.90
22008;DHT22;11168;56.976;24.168;2024-03-02T13:15:10;10.30;99.90
22008;DHT22;11168;56.976;24.168;2024-03-02T13:17:44;10.20;99.90
22008;DHT22;11168;56.976;24.168;2024-03-02T13:20:12;9.70;99.90
22008;DHT22;11168;56.976;24.168;2024-03-02T13:22:42;9.50;99.90
22008;DHT22;11168;56.976;24.168;2024-03-02T13:25:09;9.60;99.90
22008;DHT22;11168;56.976;24.168;2024-03-02T13:27:38;9.40;99.90
22008;DHT22;11168;56.976;24.168;2024-03-02T13:30:06;9.40;99.90
22008;DHT22;11168;56.976;24.168;2024-03-02T13:32:36;9.40;99.90
22008;DHT22;11168;56.976;24.168;2024-03-02T13:35:04;9.20;99.90
22008;DHT22;11168;56.976;24.168;2024-03-02T13:37:31;9.10;99.90
22008;DHT22;11168;56.976;24.168;2024-03-02T13:39:58;9.00;99.90
22008;DHT22;11168;56.976;24.168;2024-03-02T13:42:26;9.10;99.90
22008;DHT22;11168;56.976;24.168;2024-03-02T13:44:54;9.00;99.90
22008;DHT22;11168;56.976;24.168;2024-03-02T13:47:22;9.00;99.90
22008;DHT22;11168;56.976;24.168;2024-03-02T13:49:49;8.80;99.90
22008;DHT22;11168;56.976;24.168;2024-03-02T13:52:16;8.80;99.90
22008;DHT22;11168;56.976;24.168;2024-03-02T13:54:45;8.80;99.90
22008;DHT22;11168;56.976;24.168;2024-03-02T13:57:13;8.70;99.90
22008;DHT22;11168;56.976;24.168;2024-03-02T13:59:41;8.70;99.90
22008;DHT22;11168;56.976;24.168;2024-03-02T14:02:09;8.70;99.90
22008;DHT22;11168;56.976;24.168;2024-03-02T14:04:39;8.60;99.90
22008;DHT22;11168;56.976;24.168;2024-03-02T14:07:07;8.60;99.90
22008;DHT22;11168;56.976;24.168;2024-03-02T14:09:35;8.50;99.90
22008;DHT22;11168;56.976;24.168;2024-03-02T14:12:06;8.50;99.90
22008;DHT22;11168;56.976;24.168;2024-03-02T14:14:34;8.40;99.90
22008;DHT22;11168;56.976;24.168;2024-03-02T14:17:02;8.40;99.90
22008;DHT22;11168;56.976;24.168;2024-03-02T14:19:33;8.30;99.90
22008;DHT22;11168;56.976;24.168;2024-03-02T14:22:00;8.30;99.90
22008;DHT22;11168;56.976;24.168;2024-03-02T14:24:29;8.30;99.90
22008;DHT22;11168;56.976;24.168;2024-03-02T14:26:56;8.30;99.90
22008;DHT22;11168;56.976;24.168;2024-03-02T14:29:46;8.30;99.90
22008;DHT22;11168;56.976;24.168;2024-03-02T14:32:13;8.30;99.90
22008;DHT22;11168;56.976;24.168;2024-03-02T14:34:40;8.20;99.90
22008;DHT22;11168;56.976;24.168;2024-03-02T14:37:08;8.10;99.90
22008;DHT22;11168;56.976;24.168;2024-03-02T14:39:38;8.10;99.90
22008;DHT22;11168;56.976;24.168;2024-03-02T14:42:06;8.10;99.90
22008;DHT22;11168;56.976;24.168;2024-03-02T14:44:34;8.10;99.90
22008;DHT22;11168;56.976;24.168;2024-03-02T14:47:04;8.00;99.90
22008;DHT22;11168;56.976;24.168;2024-03-02T14:49:32;8.00;99.90
22008;DHT22;11168;56.976;24.168;2024-03-02T14:52:00;8.00;99.90
22008;DHT22;11168;56.976;24.168;2024-03-02T14:54:27;8.00;99.90
22008;DHT22;11168;56.976;24.168;2024-03-02T14:56:54;8.00;99.90
22008;DHT22;11168;56.976;24.168;2024-03-02T14:59:24;7.90;99.90
22008;DHT22;11168;56.976;24.168;2024-03-02T15:01:52;7.90;99.90
22008;DHT22;11168;56.976;24.168;2024-03-02T15:04:19;7.90;99.90
22008;DHT22;11168;56.976;24.168;2024-03-02T15:06:48;7.80;99.90
22008;DHT22;11168;56.976;24.168;2024-03-02T15:09:15;7.90;99.90
22008;DHT22;11168;56.976;24.168;2024-03-02T15:11:45;7.90;99.90
22008;DHT22;11168;56.976;24.168;2024-03-02T15:14:13;7.80;99.90
22008;DHT22;11168;56.976;24.168;2024-03-02T15:16:40;7.80;99.90
22008;DHT22;11168;56.976;24.168;2024-03-02T15:19:12;7.80;99.90
22008;DHT22;11168;56.976;24.168;2024-03-02T15:21:39;7.80;99.90
22008;DHT22;11168;56.976;24.168;2024-03-02T15:24:06;7.70;99.90
22008;DHT22;11168;56.976;24.168;2024-03-02T15:26:34;7.70;99.90
22008;DHT22;11168;56.976;24.168;2024-03-02T15:29:01;7.70;99.90
22008;DHT22;11168;56.976;24.168;2024-03-02T15:31:28;7.70;99.90
22008;DHT22;11168;56.976;24.168;2024-03-02T15:33:56;7.60;99.90
22008;DHT22;11168;56.976;24.168;2024-03-02T15:36:24;7.60;99.90
22008;DHT22;11168;56.976;24.168;2024-03-02T15:38:55;7.60;99.90
22008;DHT22;11168;56.976;24.168;2024-03-02T15:41:24;7.60;99.90
22008;DHT22;11168;56.976;24.168;2024-03-02T15:43:51;7.50;99.90